Cruz Bay, Virgin Islands
Current Conditions -  °F | °C
As of 4:53 PM on Sunday 23 Nov 2014 (Local Time) from TJNR Reporting Station
Few Clouds Few Clouds  
Wind Chill: 83°   Ceiling: Unl
Heat Index: 88°   Visibility: 10mi
Dew Point: 71°   Wind: 9mph
Humidity: 67%   Direction: 80°E
Pressure: 30"   Gusts: NA
Location:  18.3333°N, 64.7943°W
Report Text: TJNR 232053Z AUTO 08008KT 10SM FEW030 28/22 A3000 RMK AO2 SLP160 T02830217 55005 $
Loading
Personal Weather Stations






























Interactive Weather Map New forecast layout! Learn more

10-Day Weather Forecast

Advertisements
Track Severe Weather on mobile